首页
METAR-TAF:

METAR-TAF

机场 :

安吉利斯港, 华盛顿, 美国

纬度: 48-08-27N, 经度: 123-24-39W, 海拔: 4米

当前天气观测

该预报发布于24分钟前的13:10 UTC
静风
温度 10°C
湿度 93%
气压 1015 hPa
能見度: 16.1公里
散云层高于10000英尺

METAR: KNOW 221310Z AUTO 00000KT 10SM SCT100 10/09 A2997 RMK AO2 T00950085

时间: 06:34 (13:34 UTC)


TAF: 丢失

超过4000个机场的气象观测和天气预报(METAR&TAF报告)。

可查询的气象台以黄色和红色小点在地图上表示。

将鼠标移到小点上方,可查看气象台名称。

然后点击查看天气观测和预报。

如需切换地图:点击带黑十字的绿色按钮放大地图;点击带横线的绿色按钮缩小地图;或者点击绿色箭头查看邻近地区的地图。


METAR-TAF: